Time;durP1;ratioP1;P1;durP2;ratioP2;P2;SDS_P1;SDS_P2;PMS_P1;PMS_P2;Temp;Humidity;BMP_temperature;BMP_pressure;BME280_temperature;BME280_humidity;BME280_pressure;Samples;Min_cycle;Max_cycle;Signal;HPM_P1;HPM_P2
2020/12/02 00:00:47;;;;;;;51.17;26.55;;;;;;;1.28;67.00;100397.47;5138163;27;34970;-94
2020/12/02 00:03:41;;;;;;;53.90;25.95;;;;;;;1.16;67.16;100399.22;5138118;27;34932;-95
2020/12/02 00:06:14;;;;;;;53.63;26.48;;;;;;;0.81;68.68;100406.09;5136385;27;33288;-94
2020/12/02 00:09:15;;;;;;;51.17;25.52;;;;;;;0.98;68.58;100401.41;5136655;27;34570;-95
2020/12/02 00:11:49;;;;;;;53.70;27.65;;;;;;;0.77;69.54;100396.63;5150906;27;35194;-95
2020/12/02 00:14:33;;;;;;;60.67;24.85;;;;;;;1.20;68.04;100401.56;5153127;27;33510;-95
2020/12/02 00:17:14;;;;;;;48.42;25.02;;;;;;;1.27;67.73;100406.44;5135666;27;34468;-94
2020/12/02 00:19:51;;;;;;;57.03;26.25;;;;;;;1.29;67.85;100393.84;5154526;27;34041;-95
2020/12/02 00:22:24;;;;;;;51.28;26.02;;;;;;;1.18;68.23;100403.47;5152580;27;35246;-94
2020/12/02 00:25:08;;;;;;;45.85;23.05;;;;;;;1.12;68.43;100401.22;5151091;27;33698;-96
2020/12/02 00:27:41;;;;;;;49.83;25.15;;;;;;;1.26;67.97;100394.06;5194825;27;32502;-93
2020/12/02 00:30:17;;;;;;;42.22;23.50;;;;;;;1.17;68.41;100392.94;5178946;27;35711;-96
2020/12/02 00:32:51;;;;;;;41.25;22.83;;;;;;;1.51;67.28;100388.66;5194624;27;32511;-93
2020/12/02 00:35:28;;;;;;;48.28;23.75;;;;;;;1.44;67.30;100392.75;5176464;27;34330;-95
2020/12/02 00:38:00;;;;;;;47.15;24.58;;;;;;;1.01;68.90;100395.84;5177679;27;34596;-93
2020/12/02 00:40:35;;;;;;;43.75;21.95;;;;;;;1.34;67.95;100397.03;5178281;27;34401;-96
2020/12/02 00:43:08;;;;;;;44.75;23.95;;;;;;;1.53;67.39;100397.38;5177803;27;32300;-94
2020/12/02 00:45:41;;;;;;;46.92;24.10;;;;;;;1.58;67.02;100403.22;5178094;27;34142;-94
2020/12/02 00:48:18;;;;;;;48.22;23.80;;;;;;;1.53;67.26;100394.72;5177918;27;34475;-94
2020/12/02 00:51:04;;;;;;;41.83;23.38;;;;;;;1.39;67.78;100394.88;5186794;27;33330;-96
2020/12/02 00:53:48;;;;;;;42.17;22.87;;;;;;;1.37;67.89;100394.16;5151605;27;33244;-96
2020/12/02 00:56:36;;;;;;;46.50;24.92;;;;;;;1.32;68.37;100397.16;5175063;27;34791;-93
2020/12/02 00:59:21;;;;;;;48.90;25.23;;;;;;;1.44;67.53;100395.41;5170981;27;34838;-96
2020/12/02 01:02:29;;;;;;;46.40;24.37;;;;;;;1.17;68.56;100393.78;5179904;27;34496;-95
2020/12/02 01:05:07;;;;;;;44.55;22.65;;;;;;;1.37;67.63;100394.16;5190356;27;33994;-93
2020/12/02 01:07:42;;;;;;;49.63;25.90;;;;;;;1.41;67.66;100380.47;5171523;27;33942;-95
2020/12/02 01:10:15;;;;;;;46.47;25.55;;;;;;;1.11;68.44;100382.72;5175209;27;34923;-94
2020/12/02 01:12:49;;;;;;;47.00;22.60;;;;;;;1.32;67.80;100388.31;5158731;27;34420;-93
2020/12/02 01:15:21;;;;;;;45.20;25.30;;;;;;;1.53;66.72;100386.72;5172843;27;34356;-93
2020/12/02 01:18:28;;;;;;;42.28;23.48;;;;;;;1.56;66.34;100381.16;5173592;27;34473;-93
2020/12/02 01:21:34;;;;;;;40.67;23.30;;;;;;;1.64;65.87;100382.41;5173960;27;33576;-94
2020/12/02 01:24:23;;;;;;;41.10;23.60;;;;;;;1.50;66.43;100381.62;5154483;27;34425;-94
2020/12/02 01:27:07;;;;;;;46.35;24.50;;;;;;;1.10;67.77;100381.03;5171409;27;33142;-94
2020/12/02 01:29:53;;;;;;;50.60;26.25;;;;;;;1.47;66.52;100384.50;5163822;27;34622;-94
2020/12/02 01:32:25;;;;;;;47.08;24.63;;;;;;;1.33;66.26;100374.00;5176179;27;33311;-94
2020/12/02 01:35:16;;;;;;;46.15;23.85;;;;;;;1.21;66.65;100381.97;5159556;27;34421;-95
2020/12/02 01:37:55;;;;;;;49.65;25.30;;;;;;;1.00;67.49;100389.69;5173706;27;32843;-93
2020/12/02 01:40:32;;;;;;;43.35;23.38;;;;;;;0.86;67.56;100387.97;5174508;27;34661;-93
2020/12/02 01:43:07;;;;;;;46.88;24.20;;;;;;;1.11;65.90;100377.38;5173247;27;34953;-93
2020/12/02 01:46:03;;;;;;;44.00;24.05;;;;;;;1.32;65.06;100375.00;5203107;27;35473;-93
2020/12/02 01:49:01;;;;;;;42.92;22.42;;;;;;;1.28;64.84;100382.34;5194898;27;35064;-94
2020/12/02 01:51:51;;;;;;;39.20;20.17;;;;;;;0.89;64.36;100381.59;5181547;27;35095;-94
2020/12/02 01:54:37;;;;;;;38.78;20.12;;;;;;;0.35;64.47;100380.91;5192265;27;34661;-95
2020/12/02 01:57:30;;;;;;;38.88;20.45;;;;;;;0.43;63.02;100380.34;5138472;27;33953;-95
2020/12/02 02:00:12;;;;;;;43.08;22.70;;;;;;;0.67;61.28;100382.25;5161110;27;35834;-93
2020/12/02 02:03:09;;;;;;;40.53;20.10;;;;;;;0.34;61.78;100386.31;5174673;27;33579;-92
2020/12/02 02:05:57;;;;;;;40.53;21.52;;;;;;;-0.14;62.07;100386.06;5164269;27;34296;-92
2020/12/02 02:08:32;;;;;;;40.25;20.33;;;;;;;-0.66;64.30;100385.91;5138881;27;34372;-93
2020/12/02 02:11:23;;;;;;;42.53;21.83;;;;;;;-0.66;64.41;100395.66;5196921;27;33845;-96
2020/12/02 02:14:06;;;;;;;39.08;19.23;;;;;;;-0.38;63.26;100389.37;5194373;27;34464;-94
2020/12/02 02:16:52;;;;;;;40.05;20.58;;;;;;;-0.32;62.99;100383.66;5170098;27;34820;-95
2020/12/02 02:19:25;;;;;;;40.80;20.70;;;;;;;-0.47;63.35;100390.00;5134711;27;33748;-93
2020/12/02 02:22:11;;;;;;;43.03;20.77;;;;;;;-0.25;62.23;100384.97;5129025;27;34293;-94
2020/12/02 02:24:45;;;;;;;40.53;21.73;;;;;;;-0.30;62.13;100386.22;5132898;27;34668;-94
2020/12/02 02:27:30;;;;;;;36.05;18.02;;;;;;;-0.23;61.53;100384.88;5129519;27;33177;-94
2020/12/02 02:30:03;;;;;;;41.88;20.20;;;;;;;-0.78;63.06;100390.19;5121665;27;34475;-95
2020/12/02 02:32:48;;;;;;;38.33;20.55;;;;;;;-1.01;64.04;100386.34;5123228;27;33644;-92
2020/12/02 02:35:21;;;;;;;38.60;19.15;;;;;;;-1.05;63.66;100384.81;5100992;28;35398;-92
2020/12/02 02:37:54;;;;;;;38.28;19.75;;;;;;;-0.83;61.94;100384.31;5111431;28;35668;-96
2020/12/02 02:40:27;;;;;;;38.17;19.70;;;;;;;-1.08;62.22;100380.59;5126930;28;34344;-96
2020/12/02 02:43:11;;;;;;;34.47;18.27;;;;;;;-1.85;64.35;100374.69;5134674;27;33714;-95
2020/12/02 02:45:44;;;;;;;38.25;19.30;;;;;;;-1.43;63.69;100369.53;5160319;27;34440;-92
2020/12/02 02:48:17;;;;;;;37.13;18.17;;;;;;;-1.37;63.23;100371.78;5165272;27;32893;-93
2020/12/02 02:50:49;;;;;;;37.92;18.42;;;;;;;-1.40;62.98;100369.34;5165507;27;34324;-96
2020/12/02 02:53:33;;;;;;;32.42;17.37;;;;;;;-1.55;63.35;100372.94;5183329;27;32967;-96
2020/12/02 02:56:06;;;;;;;38.60;20.67;;;;;;;-1.72;63.10;100369.53;5153027;27;34464;-93
2020/12/02 02:58:39;;;;;;;36.95;19.15;;;;;;;-1.53;63.74;100357.78;5153868;27;35545;-92
2020/12/02 03:01:12;;;;;;;37.28;19.75;;;;;;;-1.46;63.68;100367.06;5155667;27;34702;-96
2020/12/02 03:03:59;;;;;;;36.97;18.02;;;;;;;-1.31;62.91;100363.44;5101652;27;35283;-96
2020/12/02 03:06:32;;;;;;;44.67;20.23;;;;;;;-1.34;62.63;100363.63;5152347;27;34168;-92
2020/12/02 03:09:06;;;;;;;38.05;20.83;;;;;;;-1.54;63.12;100361.38;5151287;27;34315;-96
2020/12/02 03:11:39;;;;;;;42.97;19.73;;;;;;;-1.93;63.75;100366.37;5168543;27;35636;-93
2020/12/02 03:14:12;;;;;;;38.65;18.87;;;;;;;-1.75;63.62;100368.84;5152103;27;32309;-96
2020/12/02 03:16:49;;;;;;;35.53;19.77;;;;;;;-1.75;63.49;100369.72;5135675;27;34559;-95
2020/12/02 03:19:25;;;;;;;40.90;19.50;;;;;;;-2.28;64.54;100368.47;5167878;27;34417;-96
2020/12/02 03:22:04;;;;;;;36.47;19.33;;;;;;;-2.38;64.59;100366.34;5150433;27;34215;-94
2020/12/02 03:24:41;;;;;;;39.58;18.60;;;;;;;-2.27;64.12;100372.81;5152576;27;36077;-93
2020/12/02 03:27:13;;;;;;;38.22;19.37;;;;;;;-2.11;63.66;100370.97;5168000;27;35199;-93
2020/12/02 03:29:48;;;;;;;38.20;19.10;;;;;;;-1.74;62.40;100366.09;5170806;27;33867;-92
2020/12/02 03:32:21;;;;;;;38.08;19.62;;;;;;;-2.06;62.97;100366.25;5170300;27;34864;-95
2020/12/02 03:35:18;;;;;;;37.80;18.08;;;;;;;-2.01;62.10;100368.63;5140214;27;34947;-96
2020/12/02 03:38:03;;;;;;;32.80;17.67;;;;;;;-1.87;61.85;100367.78;5159088;27;32732;-93
2020/12/02 03:40:40;;;;;;;38.78;18.80;;;;;;;-2.00;61.92;100371.16;5165087;27;34919;-96
2020/12/02 03:43:13;;;;;;;40.30;19.62;;;;;;;-2.06;61.67;100360.94;5158023;27;33216;-96
2020/12/02 03:45:58;;;;;;;38.22;19.10;;;;;;;-2.35;62.57;100366.16;5150332;27;34021;-93
2020/12/02 03:48:31;;;;;;;36.40;18.83;;;;;;;-2.50;63.39;100364.38;5154805;27;33143;-96
2020/12/02 03:51:18;;;;;;;37.53;17.98;;;;;;;-2.52;63.80;100361.84;5173322;27;34773;-92
2020/12/02 03:53:51;;;;;;;38.58;18.87;;;;;;;-2.20;62.25;100364.41;5161380;27;34376;-93
2020/12/02 03:56:25;;;;;;;36.42;18.40;;;;;;;-2.63;62.89;100352.84;5188802;27;34385;-92
2020/12/02 03:58:58;;;;;;;50.03;22.50;;;;;;;-2.42;62.77;100362.16;5158226;27;34302;-96
2020/12/02 04:01:45;;;;;;;40.00;21.58;;;;;;;-2.50;62.78;100361.75;5169224;27;35263;-92
2020/12/02 04:04:18;;;;;;;51.40;24.02;;;;;;;-2.31;61.93;100361.53;5165205;27;35397;-92
2020/12/02 04:06:50;;;;;;;52.62;25.15;;;;;;;-2.39;61.93;100355.84;5153345;27;33599;-96
2020/12/02 04:09:36;;;;;;;56.17;28.00;;;;;;;-2.31;61.49;100373.00;5098728;28;32560;-96
2020/12/02 04:12:08;;;;;;;63.28;30.00;;;;;;;-2.66;62.36;100367.09;5109105;28;33709;-92
2020/12/02 04:14:45;;;;;;;68.30;32.70;;;;;;;-2.44;61.97;100369.37;5089136;28;35164;-96
2020/12/02 04:17:20;;;;;;;57.70;29.73;;;;;;;-2.43;61.57;100373.69;5112364;28;36790;-93
2020/12/02 04:19:52;;;;;;;47.03;23.00;;;;;;;-2.43;61.30;100373.69;5078003;28;35063;-96
2020/12/02 04:22:29;;;;;;;46.10;23.62;;;;;;;-2.31;60.90;100378.31;5082411;28;33599;-96
2020/12/02 04:25:17;;;;;;;42.00;21.12;;;;;;;-2.39;61.03;100375.22;5142875;27;33001;-94
2020/12/02 04:27:50;;;;;;;41.78;19.98;;;;;;;-2.37;60.62;100381.28;5130727;27;34183;-93
2020/12/02 04:30:24;;;;;;;35.88;18.75;;;;;;;-2.51;61.21;100384.72;5133646;27;35669;-92
2020/12/02 04:32:58;;;;;;;36.42;19.30;;;;;;;-2.64;61.41;100380.22;5138773;27;34591;-92
2020/12/02 04:35:30;;;;;;;38.60;19.27;;;;;;;-2.55;61.33;100379.69;5133643;27;34202;-92
2020/12/02 04:38:03;;;;;;;33.03;16.92;;;;;;;-2.71;61.43;100380.59;5131866;27;33015;-92
2020/12/02 04:40:39;;;;;;;38.78;17.62;;;;;;;-2.51;60.88;100375.94;5133864;27;33903;-96
2020/12/02 04:43:25;;;;;;;34.42;17.75;;;;;;;-2.96;62.16;100382.91;5134098;27;33417;-96
2020/12/02 04:46:18;;;;;;;42.15;17.92;;;;;;;-2.60;60.77;100374.69;5124528;27;33166;-96
2020/12/02 04:48:54;;;;;;;41.08;19.40;;;;;;;-2.90;61.61;100366.69;5128055;27;33394;-93
2020/12/02 04:51:28;;;;;;;32.20;17.05;;;;;;;-2.88;61.55;100378.03;5131777;27;34447;-92
2020/12/02 04:54:04;;;;;;;37.00;18.25;;;;;;;-2.67;60.88;100366.22;5147191;27;35213;-96
2020/12/02 04:56:42;;;;;;;34.80;16.85;;;;;;;-2.70;60.64;100374.31;5135259;27;35091;-96
2020/12/02 04:59:16;;;;;;;38.90;18.70;;;;;;;-2.71;60.63;100375.28;5128195;27;32398;-96
2020/12/02 05:02:02;;;;;;;35.35;17.20;;;;;;;-2.55;59.68;100377.91;5151489;27;34901;-96
2020/12/02 05:05:00;;;;;;;33.10;17.05;;;;;;;-2.85;60.36;100372.56;5131745;27;20024;-92
2020/12/02 05:07:33;;;;;;;36.03;16.85;;;;;;;-2.79;60.44;100372.22;5159679;27;33888;-96
2020/12/02 05:10:18;;;;;;;44.10;18.05;;;;;;;-2.84;60.63;100375.13;5148144;27;34722;-96
2020/12/02 05:13:18;;;;;;;34.08;16.98;;;;;;;-2.67;60.19;100371.50;5158530;27;32918;-96
2020/12/02 05:16:14;;;;;;;31.60;16.17;;;;;;;-2.86;60.56;100378.78;5153885;27;34529;-96
2020/12/02 05:19:23;;;;;;;34.80;16.48;;;;;;;-2.97;60.37;100381.19;5167805;27;35196;-96
2020/12/02 05:22:23;;;;;;;40.33;17.95;;;;;;;-3.22;61.15;100380.75;5140255;27;34422;-91
2020/12/02 05:24:56;;;;;;;33.33;18.00;;;;;;;-3.24;61.62;100385.25;5152949;27;34355;-96
2020/12/02 05:28:07;;;;;;;36.45;18.10;;;;;;;-2.93;60.74;100385.38;5142299;27;33935;-95
2020/12/02 05:31:20;;;;;;;37.67;18.33;;;;;;;-3.15;61.11;100369.84;5188567;27;32484;-92
2020/12/02 05:40:20;;;;;;;;;;;;;;;-3.07;61.01;100371.12;5183863;27;33961;-96
2020/12/02 05:58:51;;;;;;;34.53;16.02;;;;;;;-3.44;61.33;100380.22;5045947;28;33594;-96
2020/12/02 06:01:47;;;;;;;39.80;16.95;;;;;;;-3.12;60.73;100381.09;5016159;28;33136;-96
2020/12/02 06:04:37;;;;;;;37.03;18.48;;;;;;;-3.30;61.05;100375.00;5039538;28;32776;-96
2020/12/02 06:07:52;;;;;;;42.30;20.00;;;;;;;-3.34;60.84;100375.25;5047254;28;33800;-96
2020/12/02 06:10:55;;;;;;;47.30;20.85;;;;;;;-3.52;61.40;100377.94;5039505;28;34037;-95
2020/12/02 06:14:49;;;;;;;37.97;17.52;;;;;;;-3.42;60.77;100379.16;5035445;28;33086;-95
2020/12/02 06:18:40;;;;;;;37.78;17.95;;;;;;;-3.29;60.68;100394.41;5110966;28;20114;-96
2020/12/02 06:23:05;;;;;;;;;;;;;;;;;;;;;
2020/12/02 06:37:30;;;;;;;34.00;16.77;;;;;;;-3.92;63.35;100380.06;5103269;28;34266;-96
2020/12/02 06:40:24;;;;;;;34.33;16.27;;;;;;;-3.80;63.57;100389.13;5123760;27;33814;-95
2020/12/02 06:43:14;;;;;;;37.05;18.85;;;;;;;-3.41;62.82;100391.47;5152801;27;33253;-96
2020/12/02 06:45:57;;;;;;;36.58;18.05;;;;;;;-3.12;61.98;100381.09;5170082;27;34881;-96
2020/12/02 06:48:55;;;;;;;32.33;16.75;;;;;;;-3.24;62.19;100384.41;5176065;27;33298;-96
2020/12/02 06:52:00;;;;;;;33.15;16.10;;;;;;;-3.07;62.09;100375.53;5121516;27;33708;-96
2020/12/02 06:55:11;;;;;;;30.55;15.82;;;;;;;-2.84;61.22;100375.13;5160564;27;34686;-96
2020/12/02 06:57:55;;;;;;;35.42;17.15;;;;;;;-2.72;60.57;100376.22;5157833;27;34615;-96
2020/12/02 07:00:52;;;;;;;30.48;15.25;;;;;;;-2.55;60.22;100379.69;5158324;27;35115;-96
2020/12/02 07:04:03;;;;;;;34.47;16.92;;;;;;;-2.41;60.10;100385.06;5185928;27;33028;-96
2020/12/02 07:07:08;;;;;;;36.45;17.20;;;;;;;-2.36;60.05;100396.22;5187295;27;32528;-96
2020/12/02 07:11:32;;;;;;;38.33;20.73;;;;;;;-2.20;60.07;100396.22;5072845;28;35177;-96
2020/12/02 07:15:27;;;;;;;52.22;24.65;;;;;;;-2.45;61.44;100404.72;5085800;28;34033;-96
2020/12/02 08:11:25;;;;;;;38.10;20.70;;;;;;;3.24;57.12;100369.97;5150057;27;20114;31
2020/12/02 08:29:09;;;;;;;36.97;21.23;;;;;;;4.47;54.31;100379.41;5196008;27;20118;-96
2020/12/02 09:37:08;;;;;;;31.35;19.15;;;;;;;6.79;44.39;100330.56;5090176;27;35993;-96
2020/12/02 09:40:16;;;;;;;29.65;19.10;;;;;;;7.39;43.58;100318.47;5022434;28;34048;-96
2020/12/02 09:47:17;;;;;;;27.55;16.67;;;;;;;8.37;40.27;100306.78;5014105;28;34092;-96
2020/12/02 09:50:20;;;;;;;32.05;18.17;;;;;;;9.32;38.65;100312.09;5020728;28;34045;-96
2020/12/02 09:57:06;;;;;;;36.92;20.65;;;;;;;9.92;38.26;100296.62;5073500;28;20087;-96
2020/12/02 10:15:25;;;;;;;38.42;20.92;;;;;;;9.25;38.87;100270.59;5139889;27;36686;-96
2020/12/02 10:26:22;;;;;;;39.72;22.75;;;;;;;10.10;38.06;100264.03;5153445;27;33494;-95
2020/12/02 10:41:13;;;;;;;33.60;20.50;;;;;;;7.03;45.90;100248.53;5155658;27;33859;31
2020/12/02 10:45:10;;;;;;;39.75;21.83;;;;;;;7.21;44.38;100235.94;5036587;28;20088;-96
2020/12/02 10:48:53;;;;;;;;;;;;;;;;;;;;;
2020/12/02 11:03:33;;;;;;;28.95;15.98;;;;;;;8.30;41.27;100207.78;5153063;27;32984;-96
2020/12/02 11:07:31;;;;;;;27.50;14.50;;;;;;;9.23;38.97;100197.94;5131560;27;32476;-96
2020/12/02 11:10:42;;;;;;;24.95;14.38;;;;;;;9.26;37.43;100186.81;5140325;27;34429;-96
2020/12/02 11:13:38;;;;;;;;;;;;;;;;;;;;;
2020/12/02 11:16:50;;;;;;;25.45;15.40;;;;;;;11.40;33.72;100179.75;5173423;27;20087;-96
2020/12/02 11:20:07;;;;;;;26.30;15.25;;;;;;;9.89;35.51;100177.16;5137352;27;32613;-94
2020/12/02 11:23:14;;;;;;;21.98;14.52;;;;;;;11.22;32.88;100174.66;5130638;27;34584;-96
2020/12/02 11:26:36;;;;;;;23.75;14.15;;;;;;;12.11;32.62;100177.56;5136781;27;34619;-96
2020/12/02 11:29:41;;;;;;;26.08;17.35;;;;;;;12.87;30.13;100171.84;5149121;27;20091;-96
2020/12/02 11:33:07;;;;;;;23.02;15.63;;;;;;;14.42;28.10;100160.28;5061879;28;32704;-93
2020/12/02 11:36:07;;;;;;;21.62;13.95;;;;;;;14.68;26.64;100164.19;5111224;27;34372;-96
2020/12/02 11:39:24;;;;;;;20.62;13.68;;;;;;;15.03;26.31;100150.44;5206327;27;35250;-96
2020/12/02 11:42:30;;;;;;;24.85;14.60;;;;;;;13.58;28.40;100146.63;5163543;27;33065;-96
2020/12/02 11:45:28;;;;;;;26.98;17.15;;;;;;;15.01;27.52;100139.78;5207177;27;33016;-96
2020/12/02 11:48:27;;;;;;;24.20;15.15;;;;;;;14.84;27.38;100142.06;5165242;27;32962;-94
2020/12/02 11:51:20;;;;;;;27.75;18.62;;;;;;;14.94;25.84;100134.34;5196180;27;34345;-96
2020/12/02 11:54:13;;;;;;;44.38;28.10;;;;;;;16.46;24.17;100128.06;5199466;27;33224;-94
2020/12/02 11:57:09;;;;;;;34.05;22.60;;;;;;;17.06;23.68;100130.47;5214798;27;33796;-96
2020/12/02 11:59:42;;;;;;;26.60;16.80;;;;;;;15.84;24.25;100131.22;5199294;27;34179;-95
2020/12/02 12:02:59;;;;;;;23.33;16.55;;;;;;;15.47;25.13;100124.53;5170864;27;33752;-96
2020/12/02 12:06:00;;;;;;;18.62;13.77;;;;;;;15.01;25.47;100118.00;5196191;27;34518;-94
2020/12/02 12:09:26;;;;;;;26.45;16.65;;;;;;;15.43;25.24;100115.09;5241252;27;33768;-96
2020/12/02 12:12:17;;;;;;;21.80;14.32;;;;;;;16.39;23.78;100114.47;5217183;27;34199;-94
2020/12/02 12:15:27;;;;;;;23.95;14.85;;;;;;;14.93;25.15;100123.66;5202041;27;33195;-96
2020/12/02 12:18:28;;;;;;;21.92;15.43;;;;;;;16.63;23.67;100117.50;5131089;27;34308;-96
2020/12/02 12:21:26;;;;;;;23.40;14.68;;;;;;;16.08;23.66;100117.09;5168287;27;34879;-95
2020/12/02 12:24:15;;;;;;;21.77;15.25;;;;;;;16.64;23.62;100110.16;5226336;27;33338;-96
2020/12/02 12:26:52;;;;;;;23.45;15.82;;;;;;;14.80;25.77;100108.13;5197615;27;32741;-96
2020/12/02 12:29:39;;;;;;;22.42;15.65;;;;;;;13.94;27.03;100110.28;5202318;27;32909;-96
2020/12/02 12:32:48;;;;;;;23.65;17.05;;;;;;;10.74;31.53;100113.47;5177726;27;34397;-95
2020/12/02 12:35:58;;;;;;;24.75;15.80;;;;;;;11.07;31.93;100105.09;5186975;27;33411;-96
2020/12/02 12:39:24;;;;;;;22.23;15.18;;;;;;;10.70;32.21;100100.50;5219077;27;33198;-95
2020/12/02 12:42:54;;;;;;;27.52;17.70;;;;;;;9.41;34.48;100106.06;5118491;27;33068;-96
2020/12/02 12:46:18;;;;;;;25.35;16.37;;;;;;;8.93;36.04;100097.81;5217766;27;20750;-96
2020/12/02 12:49:09;;;;;;;32.85;17.08;;;;;;;7.33;39.40;100101.28;5158731;27;32913;-96
2020/12/02 12:51:44;;;;;;;28.00;18.07;;;;;;;7.46;39.40;100103.56;5190686;27;34405;-94
2020/12/02 12:54:33;;;;;;;22.45;16.12;;;;;;;7.10;40.60;100099.09;5161457;27;33089;-95
2020/12/02 12:57:26;;;;;;;31.23;17.23;;;;;;;6.48;42.05;100109.78;5176229;27;32659;-95
2020/12/02 13:00:27;;;;;;;30.95;17.83;;;;;;;6.86;41.36;100103.25;5178429;27;34022;-96
2020/12/02 13:03:41;;;;;;;30.60;18.40;;;;;;;6.43;42.69;100102.19;5169731;27;35052;-96
2020/12/02 13:07:05;;;;;;;35.30;18.40;;;;;;;6.28;43.25;100109.06;5218458;27;35015;-96
2020/12/02 13:10:15;;;;;;;34.05;19.48;;;;;;;5.95;44.90;100100.59;5186311;27;32890;-96
2020/12/02 13:13:26;;;;;;;35.20;19.40;;;;;;;5.71;45.23;100101.97;5158127;27;32908;-96
2020/12/02 13:16:12;;;;;;;29.35;18.92;;;;;;;4.88;47.90;100093.69;5172585;27;33145;-96
2020/12/02 13:19:18;;;;;;;34.53;19.52;;;;;;;5.21;47.04;100091.50;5178680;27;33116;-96
2020/12/02 13:21:59;;;;;;;29.67;17.95;;;;;;;5.08;47.63;100081.13;5143996;27;32782;-95
2020/12/02 13:25:13;;;;;;;35.45;19.62;;;;;;;4.23;49.21;100087.00;5181246;27;32771;-96
2020/12/02 13:28:14;;;;;;;33.38;18.92;;;;;;;4.53;48.85;100085.22;5176257;27;33529;-96
2020/12/02 13:31:24;;;;;;;35.22;18.75;;;;;;;4.01;50.65;100087.25;5189086;27;33135;-96
2020/12/02 13:33:58;;;;;;;37.22;18.85;;;;;;;4.50;49.43;100093.53;5186756;27;32740;-96
2020/12/02 13:37:15;;;;;;;30.37;17.90;;;;;;;3.95;50.98;100096.69;5197825;27;33044;-96
2020/12/02 13:40:01;;;;;;;37.13;20.08;;;;;;;4.46;49.86;100093.94;5214747;27;32333;-96
2020/12/02 13:42:58;;;;;;;36.30;21.62;;;;;;;4.02;50.88;100092.47;5204416;27;32752;-96
2020/12/02 13:45:43;;;;;;;43.55;23.58;;;;;;;4.52;50.13;100093.41;5183816;27;33533;-94
2020/12/02 13:48:23;;;;;;;38.47;21.17;;;;;;;4.81;50.01;100089.91;5176955;27;33857;-94
2020/12/02 13:51:45;;;;;;;44.42;25.60;;;;;;;4.55;50.03;100087.75;5160464;27;32604;-96
2020/12/02 13:54:53;;;;;;;34.37;20.23;;;;;;;4.81;50.09;100084.53;5206661;27;34188;-95
2020/12/02 13:58:11;;;;;;;39.47;21.17;;;;;;;4.69;50.89;100081.16;5214069;27;32819;-93
2020/12/02 14:01:25;;;;;;;42.42;22.40;;;;;;;4.32;51.40;100060.44;5214734;27;35275;-94
2020/12/02 14:04:43;;;;;;;32.97;19.87;;;;;;;4.49;51.81;100061.56;5166251;27;33449;-93
2020/12/02 14:07:22;;;;;;;42.55;20.52;;;;;;;3.97;52.51;100062.62;5213601;27;34205;-94
2020/12/02 14:09:59;;;;;;;35.10;21.48;;;;;;;3.76;53.04;100051.13;5214031;27;32906;-92
2020/12/02 14:12:38;;;;;;;36.17;20.73;;;;;;;3.27;54.61;100059.81;5196393;27;32992;-96
2020/12/02 14:15:32;;;;;;;36.85;19.75;;;;;;;3.79;54.13;100053.56;5196613;27;33668;-95
2020/12/02 14:18:19;;;;;;;35.22;20.70;;;;;;;3.79;53.77;100053.56;5195913;27;33050;-96
2020/12/02 14:21:04;;;;;;;32.95;20.83;;;;;;;3.52;54.89;100063.03;5206705;27;32689;-93
2020/12/02 14:23:38;;;;;;;37.53;20.02;;;;;;;3.31;55.63;100049.72;5194124;27;34433;-96
2020/12/02 14:26:29;;;;;;;37.58;19.15;;;;;;;3.44;55.16;100060.16;5199536;27;33308;-94
2020/12/02 14:29:05;;;;;;;34.58;20.05;;;;;;;3.46;55.15;100068.91;5197655;27;34239;-95
2020/12/02 14:31:51;;;;;;;35.25;19.83;;;;;;;3.59;55.17;100058.81;5193070;27;33408;-93
2020/12/02 14:34:24;;;;;;;43.35;21.27;;;;;;;3.30;56.14;100062.22;5194651;27;33853;-95
2020/12/02 14:36:58;;;;;;;40.75;20.92;;;;;;;3.39;55.75;100062.41;5197334;27;33891;-94
2020/12/02 14:39:31;;;;;;;40.42;21.98;;;;;;;3.53;55.89;100070.91;5181075;27;32549;-94
2020/12/02 14:42:20;;;;;;;39.90;21.62;;;;;;;3.38;55.96;100068.72;5175891;27;32871;-95
2020/12/02 14:44:56;;;;;;;42.80;24.37;;;;;;;3.39;56.03;100062.41;5162777;27;35147;-92
2020/12/02 14:47:34;;;;;;;47.00;28.38;;;;;;;2.80;58.01;100068.25;5161571;27;34186;-96
2020/12/02 14:50:26;;;;;;;42.25;25.55;;;;;;;3.38;56.53;100071.41;5148108;27;33160;-96
2020/12/02 14:53:41;;;;;;;41.60;25.02;;;;;;;3.02;57.61;100081.59;5149032;27;33013;-96
2020/12/02 14:57:03;;;;;;;42.75;25.30;;;;;;;3.26;56.91;100076.81;5181842;27;33826;-96
2020/12/02 15:00:18;;;;;;;45.10;23.45;;;;;;;3.22;56.81;100075.41;5172951;27;34392;-96
2020/12/02 15:02:55;;;;;;;39.17;23.00;;;;;;;3.01;57.80;100070.06;5190084;27;34342;-97
2020/12/02 15:09:45;;;;;;;45.70;25.45;;;;;;;2.53;58.92;100063.41;5214504;27;20070;-96
2020/12/02 15:12:47;;;;;;;47.88;26.65;;;;;;;2.84;58.35;100050.13;5209041;27;20082;-96
2020/12/02 15:15:43;;;;;;;50.35;27.75;;;;;;;2.68;58.86;100050.59;5194439;27;33757;-94
2020/12/02 15:18:19;;;;;;;48.17;25.23;;;;;;;2.91;58.51;100047.78;5207063;27;32752;-93
2020/12/02 15:21:12;;;;;;;47.13;26.62;;;;;;;2.85;58.61;100057.16;5176990;27;33325;-95
2020/12/02 15:23:45;;;;;;;57.70;29.80;;;;;;;2.88;58.55;100059.56;5132496;27;32900;-94
2020/12/02 15:26:23;;;;;;;50.95;27.33;;;;;;;2.80;58.46;100059.38;5151516;27;34593;-94
2020/12/02 15:28:58;;;;;;;39.05;23.10;;;;;;;2.55;59.25;100048.09;5133417;27;32828;-94
2020/12/02 15:32:04;;;;;;;40.60;23.83;;;;;;;3.02;58.16;100054.88;5185047;27;34025;-96
2020/12/02 15:34:54;;;;;;;45.45;23.17;;;;;;;2.63;58.95;100050.97;5181997;27;33242;-96
2020/12/02 15:38:10;;;;;;;52.65;23.90;;;;;;;2.80;58.55;100052.22;5158375;27;34180;-94
2020/12/02 15:41:14;;;;;;;48.87;24.42;;;;;;;2.64;59.15;100043.81;5207381;27;33245;-93
2020/12/02 15:44:37;;;;;;;;;;;;;;;;;;;;;
2020/12/02 15:47:43;;;;;;;39.10;21.62;;;;;;;2.26;60.19;100050.50;5172649;27;33709;-94
2020/12/02 15:51:15;;;;;;;39.60;23.67;;;;;;;1.75;61.74;100042.16;5190454;27;33421;-95
2020/12/02 15:54:11;;;;;;;38.90;21.55;;;;;;;2.27;60.15;100038.88;5166230;27;34017;-94
2020/12/02 15:57:08;;;;;;;36.10;21.23;;;;;;;2.22;60.14;100035.75;5181391;27;33508;-93
2020/12/02 15:59:57;;;;;;;35.70;21.27;;;;;;;1.90;61.13;100021.41;5196826;27;34540;-94
2020/12/02 16:02:40;;;;;;;34.05;20.50;;;;;;;1.90;61.18;100017.88;5198660;27;33016;-94
2020/12/02 16:06:00;;;;;;;41.78;22.52;;;;;;;2.17;60.16;100028.13;5187059;27;32538;-96
2020/12/02 16:08:50;;;;;;;42.97;21.98;;;;;;;1.61;61.62;100036.22;5203293;27;33475;-96
2020/12/02 16:12:07;;;;;;;56.05;28.10;;;;;;;1.98;60.55;100030.59;5165102;27;34476;-95
2020/12/02 16:15:03;;;;;;;51.90;27.37;;;;;;;1.39;62.64;100048.56;5157348;27;33433;-94
2020/12/02 16:18:14;;;;;;;45.28;22.65;;;;;;;1.97;60.52;100056.41;5166634;27;32430;-96
2020/12/02 16:21:54;;;;;;;51.58;27.35;;;;;;;1.75;61.21;100065.28;5172185;27;34005;-96
2020/12/02 16:24:32;;;;;;;52.50;27.58;;;;;;;1.38;62.18;100069.06;5171246;27;33713;-95
2020/12/02 16:27:26;;;;;;;41.50;22.37;;;;;;;1.53;61.99;100061.66;5196449;27;34379;-96
2020/12/02 16:29:59;;;;;;;46.17;26.45;;;;;;;1.88;61.28;100068.66;5182331;27;32942;-95
2020/12/02 16:33:03;;;;;;;44.35;24.08;;;;;;;1.55;61.99;100070.38;5188680;27;33041;-95
2020/12/02 16:35:59;;;;;;;41.53;22.92;;;;;;;1.54;62.02;100074.03;5160193;27;34360;-96
2020/12/02 16:39:08;;;;;;;40.15;21.17;;;;;;;1.56;62.54;100077.41;5190353;27;33371;-96
2020/12/02 16:42:49;;;;;;;;;;;;;;;;;;;;;
2020/12/02 16:46:43;;;;;;;40.28;22.02;;;;;;;2.16;61.23;100069.09;5182043;27;20133;-95
2020/12/02 16:49:40;;;;;;;44.47;23.15;;;;;;;1.46;62.99;100067.59;5125175;27;33931;-95
2020/12/02 16:52:45;;;;;;;45.30;27.30;;;;;;;2.13;61.32;100053.34;5134802;27;33175;-94
2020/12/02 16:55:58;;;;;;;47.78;26.85;;;;;;;1.59;63.11;100050.53;5136629;27;33993;-96
2020/12/02 16:59:06;;;;;;;53.97;30.70;;;;;;;2.24;60.90;100029.28;5148212;27;34031;-94
2020/12/02 17:02:32;;;;;;;56.05;28.98;;;;;;;2.19;60.79;100031.50;5157020;27;32929;-94